sensor_id;sensor_type;location;lat;lon;timestamp;P1;durP1;ratioP1;P2;durP2;ratioP2
20776;SDS011;10548;47.504;8.248;2022-07-23T00:00:16;9.40;;;7.30;;
20776;SDS011;10548;47.504;8.248;2022-07-23T00:02:44;9.90;;;7.30;;
20776;SDS011;10548;47.504;8.248;2022-07-23T00:05:11;14.10;;;8.13;;
20776;SDS011;10548;47.504;8.248;2022-07-23T00:07:39;9.23;;;7.20;;
20776;SDS011;10548;47.504;8.248;2022-07-23T00:10:06;11.67;;;8.03;;
20776;SDS011;10548;47.504;8.248;2022-07-23T00:12:34;12.50;;;8.30;;
20776;SDS011;10548;47.504;8.248;2022-07-23T00:15:16;10.27;;;8.00;;
20776;SDS011;10548;47.504;8.248;2022-07-23T00:17:43;11.23;;;7.37;;
20776;SDS011;10548;47.504;8.248;2022-07-23T00:20:10;11.33;;;7.90;;
20776;SDS011;10548;47.504;8.248;2022-07-23T00:22:45;16.63;;;7.93;;
20776;SDS011;10548;47.504;8.248;2022-07-23T00:25:16;11.60;;;8.00;;
20776;SDS011;10548;47.504;8.248;2022-07-23T00:27:59;8.53;;;7.40;;
20776;SDS011;10548;47.504;8.248;2022-07-23T00:30:28;9.03;;;7.43;;
20776;SDS011;10548;47.504;8.248;2022-07-23T00:32:57;9.53;;;8.03;;
20776;SDS011;10548;47.504;8.248;2022-07-23T00:35:26;10.40;;;7.23;;
20776;SDS011;10548;47.504;8.248;2022-07-23T00:37:55;9.33;;;7.90;;
20776;SDS011;10548;47.504;8.248;2022-07-23T00:40:24;10.13;;;7.70;;
20776;SDS011;10548;47.504;8.248;2022-07-23T00:42:51;10.23;;;9.10;;
20776;SDS011;10548;47.504;8.248;2022-07-23T00:45:19;13.47;;;9.97;;
20776;SDS011;10548;47.504;8.248;2022-07-23T00:47:46;11.67;;;9.60;;
20776;SDS011;10548;47.504;8.248;2022-07-23T00:50:13;9.77;;;8.73;;
20776;SDS011;10548;47.504;8.248;2022-07-23T00:52:41;12.10;;;8.50;;
20776;SDS011;10548;47.504;8.248;2022-07-23T00:55:09;11.63;;;8.67;;
20776;SDS011;10548;47.504;8.248;2022-07-23T00:57:37;10.00;;;7.57;;
20776;SDS011;10548;47.504;8.248;2022-07-23T01:00:05;9.27;;;7.17;;
20776;SDS011;10548;47.504;8.248;2022-07-23T01:02:54;10.80;;;6.73;;
20776;SDS011;10548;47.504;8.248;2022-07-23T01:05:21;11.50;;;7.67;;
20776;SDS011;10548;47.504;8.248;2022-07-23T01:07:49;7.93;;;7.13;;
20776;SDS011;10548;47.504;8.248;2022-07-23T01:10:22;11.60;;;7.07;;
20776;SDS011;10548;47.504;8.248;2022-07-23T01:13:07;10.03;;;7.53;;
20776;SDS011;10548;47.504;8.248;2022-07-23T01:15:36;12.70;;;7.53;;
20776;SDS011;10548;47.504;8.248;2022-07-23T01:18:04;10.40;;;7.67;;
20776;SDS011;10548;47.504;8.248;2022-07-23T01:20:35;8.13;;;7.30;;
20776;SDS011;10548;47.504;8.248;2022-07-23T01:23:02;13.83;;;7.53;;
20776;SDS011;10548;47.504;8.248;2022-07-23T01:25:30;8.13;;;7.33;;
20776;SDS011;10548;47.504;8.248;2022-07-23T01:28:01;10.73;;;7.50;;
20776;SDS011;10548;47.504;8.248;2022-07-23T01:30:28;9.07;;;6.80;;
20776;SDS011;10548;47.504;8.248;2022-07-23T01:32:57;9.63;;;7.33;;
20776;SDS011;10548;47.504;8.248;2022-07-23T01:35:24;12.07;;;7.50;;
20776;SDS011;10548;47.504;8.248;2022-07-23T01:37:55;11.03;;;7.93;;
20776;SDS011;10548;47.504;8.248;2022-07-23T01:40:23;10.87;;;8.03;;
20776;SDS011;10548;47.504;8.248;2022-07-23T01:42:51;10.63;;;8.13;;
20776;SDS011;10548;47.504;8.248;2022-07-23T01:45:20;11.53;;;8.20;;
20776;SDS011;10548;47.504;8.248;2022-07-23T01:47:50;11.73;;;8.37;;
20776;SDS011;10548;47.504;8.248;2022-07-23T01:50:17;9.20;;;7.83;;
20776;SDS011;10548;47.504;8.248;2022-07-23T01:52:59;11.83;;;7.70;;
20776;SDS011;10548;47.504;8.248;2022-07-23T01:55:27;12.57;;;8.20;;
20776;SDS011;10548;47.504;8.248;2022-07-23T01:57:55;12.23;;;8.50;;
20776;SDS011;10548;47.504;8.248;2022-07-23T02:00:27;18.80;;;8.00;;
20776;SDS011;10548;47.504;8.248;2022-07-23T02:02:54;12.57;;;8.67;;
20776;SDS011;10548;47.504;8.248;2022-07-23T02:05:21;12.97;;;8.80;;
20776;SDS011;10548;47.504;8.248;2022-07-23T02:07:48;10.43;;;8.83;;
20776;SDS011;10548;47.504;8.248;2022-07-23T02:10:16;11.73;;;9.00;;
20776;SDS011;10548;47.504;8.248;2022-07-23T02:12:43;12.63;;;7.70;;
20776;SDS011;10548;47.504;8.248;2022-07-23T02:15:10;11.50;;;8.57;;
20776;SDS011;10548;47.504;8.248;2022-07-23T02:17:39;9.27;;;7.53;;
20776;SDS011;10548;47.504;8.248;2022-07-23T02:20:07;8.80;;;7.77;;
20776;SDS011;10548;47.504;8.248;2022-07-23T02:22:35;9.43;;;8.40;;
20776;SDS011;10548;47.504;8.248;2022-07-23T02:25:04;10.33;;;8.37;;
20776;SDS011;10548;47.504;8.248;2022-07-23T02:27:32;11.47;;;8.70;;
20776;SDS011;10548;47.504;8.248;2022-07-23T02:30:00;10.93;;;8.67;;
20776;SDS011;10548;47.504;8.248;2022-07-23T02:32:27;10.83;;;8.53;;
20776;SDS011;10548;47.504;8.248;2022-07-23T02:34:55;11.10;;;8.77;;
20776;SDS011;10548;47.504;8.248;2022-07-23T02:37:22;9.63;;;8.43;;
20776;SDS011;10548;47.504;8.248;2022-07-23T02:39:50;12.47;;;9.27;;
20776;SDS011;10548;47.504;8.248;2022-07-23T02:42:18;11.90;;;9.27;;
20776;SDS011;10548;47.504;8.248;2022-07-23T02:44:45;13.00;;;9.60;;
20776;SDS011;10548;47.504;8.248;2022-07-23T02:47:13;10.10;;;9.03;;
20776;SDS011;10548;47.504;8.248;2022-07-23T02:49:41;13.30;;;9.40;;
20776;SDS011;10548;47.504;8.248;2022-07-23T02:52:08;14.67;;;11.47;;
20776;SDS011;10548;47.504;8.248;2022-07-23T02:54:37;14.33;;;10.17;;
20776;SDS011;10548;47.504;8.248;2022-07-23T02:57:04;12.03;;;10.07;;
20776;SDS011;10548;47.504;8.248;2022-07-23T02:59:31;15.63;;;10.93;;
20776;SDS011;10548;47.504;8.248;2022-07-23T03:01:59;15.23;;;10.13;;
20776;SDS011;10548;47.504;8.248;2022-07-23T03:04:27;9.83;;;8.73;;
20776;SDS011;10548;47.504;8.248;2022-07-23T03:06:55;12.50;;;9.37;;
20776;SDS011;10548;47.504;8.248;2022-07-23T03:09:24;10.50;;;9.30;;
20776;SDS011;10548;47.504;8.248;2022-07-23T03:11:52;13.97;;;8.80;;
20776;SDS011;10548;47.504;8.248;2022-07-23T03:14:19;12.10;;;8.67;;
20776;SDS011;10548;47.504;8.248;2022-07-23T03:16:46;9.53;;;8.57;;
20776;SDS011;10548;47.504;8.248;2022-07-23T03:19:13;9.87;;;8.80;;
20776;SDS011;10548;47.504;8.248;2022-07-23T03:21:40;13.40;;;8.87;;
20776;SDS011;10548;47.504;8.248;2022-07-23T03:24:08;9.53;;;8.47;;
20776;SDS011;10548;47.504;8.248;2022-07-23T03:26:36;10.03;;;7.87;;
20776;SDS011;10548;47.504;8.248;2022-07-23T03:29:03;9.50;;;7.70;;
20776;SDS011;10548;47.504;8.248;2022-07-23T03:31:31;8.83;;;7.70;;
20776;SDS011;10548;47.504;8.248;2022-07-23T03:33:58;8.60;;;7.67;;
20776;SDS011;10548;47.504;8.248;2022-07-23T03:36:26;11.17;;;7.60;;
20776;SDS011;10548;47.504;8.248;2022-07-23T03:38:55;13.00;;;8.27;;
20776;SDS011;10548;47.504;8.248;2022-07-23T03:41:22;12.60;;;8.63;;
20776;SDS011;10548;47.504;8.248;2022-07-23T03:43:49;17.30;;;10.33;;
20776;SDS011;10548;47.504;8.248;2022-07-23T03:46:16;13.07;;;10.30;;
20776;SDS011;10548;47.504;8.248;2022-07-23T03:48:43;16.97;;;10.60;;
20776;SDS011;10548;47.504;8.248;2022-07-23T03:51:10;13.83;;;10.50;;
20776;SDS011;10548;47.504;8.248;2022-07-23T03:53:43;14.87;;;10.53;;
20776;SDS011;10548;47.504;8.248;2022-07-23T03:56:10;14.13;;;11.03;;
20776;SDS011;10548;47.504;8.248;2022-07-23T03:58:37;12.67;;;10.57;;
20776;SDS011;10548;47.504;8.248;2022-07-23T04:01:04;14.63;;;11.33;;
20776;SDS011;10548;47.504;8.248;2022-07-23T04:03:32;15.63;;;11.90;;
20776;SDS011;10548;47.504;8.248;2022-07-23T04:05:59;12.43;;;11.13;;
20776;SDS011;10548;47.504;8.248;2022-07-23T04:08:29;16.90;;;11.90;;
20776;SDS011;10548;47.504;8.248;2022-07-23T04:10:58;16.20;;;12.13;;
20776;SDS011;10548;47.504;8.248;2022-07-23T04:13:25;14.77;;;12.47;;
20776;SDS011;10548;47.504;8.248;2022-07-23T04:15:52;14.83;;;11.27;;
20776;SDS011;10548;47.504;8.248;2022-07-23T04:18:19;13.57;;;11.00;;
20776;SDS011;10548;47.504;8.248;2022-07-23T04:20:59;14.57;;;11.50;;
20776;SDS011;10548;47.504;8.248;2022-07-23T04:23:26;12.27;;;10.97;;
20776;SDS011;10548;47.504;8.248;2022-07-23T04:25:53;13.67;;;11.50;;
20776;SDS011;10548;47.504;8.248;2022-07-23T04:28:20;13.17;;;10.60;;
20776;SDS011;10548;47.504;8.248;2022-07-23T04:30:48;14.03;;;10.53;;
20776;SDS011;10548;47.504;8.248;2022-07-23T04:33:16;13.17;;;10.20;;
20776;SDS011;10548;47.504;8.248;2022-07-23T04:35:46;13.07;;;11.27;;
20776;SDS011;10548;47.504;8.248;2022-07-23T04:38:18;16.73;;;11.90;;
20776;SDS011;10548;47.504;8.248;2022-07-23T04:40:47;21.53;;;13.33;;
20776;SDS011;10548;47.504;8.248;2022-07-23T04:43:14;20.20;;;15.30;;
20776;SDS011;10548;47.504;8.248;2022-07-23T04:45:47;21.70;;;15.50;;
20776;SDS011;10548;47.504;8.248;2022-07-23T04:48:14;19.33;;;14.77;;
20776;SDS011;10548;47.504;8.248;2022-07-23T04:50:42;15.80;;;14.03;;
20776;SDS011;10548;47.504;8.248;2022-07-23T04:53:21;20.37;;;14.47;;
20776;SDS011;10548;47.504;8.248;2022-07-23T04:55:51;15.83;;;13.07;;
20776;SDS011;10548;47.504;8.248;2022-07-23T04:58:19;15.43;;;13.83;;
20776;SDS011;10548;47.504;8.248;2022-07-23T05:00:46;14.73;;;12.60;;
20776;SDS011;10548;47.504;8.248;2022-07-23T05:03:14;16.53;;;14.73;;
20776;SDS011;10548;47.504;8.248;2022-07-23T05:05:43;17.00;;;13.50;;
20776;SDS011;10548;47.504;8.248;2022-07-23T05:08:13;15.87;;;14.27;;
20776;SDS011;10548;47.504;8.248;2022-07-23T05:10:44;19.27;;;14.47;;
20776;SDS011;10548;47.504;8.248;2022-07-23T05:13:14;17.10;;;15.00;;
20776;SDS011;10548;47.504;8.248;2022-07-23T05:15:42;16.57;;;14.50;;
20776;SDS011;10548;47.504;8.248;2022-07-23T05:18:10;15.03;;;13.43;;
20776;SDS011;10548;47.504;8.248;2022-07-23T05:20:37;17.70;;;15.33;;
20776;SDS011;10548;47.504;8.248;2022-07-23T05:23:06;17.40;;;13.70;;
20776;SDS011;10548;47.504;8.248;2022-07-23T05:25:34;17.37;;;14.07;;
20776;SDS011;10548;47.504;8.248;2022-07-23T05:28:02;18.53;;;14.10;;
20776;SDS011;10548;47.504;8.248;2022-07-23T05:30:29;16.83;;;12.17;;
20776;SDS011;10548;47.504;8.248;2022-07-23T05:33:00;17.83;;;15.13;;
20776;SDS011;10548;47.504;8.248;2022-07-23T05:35:27;15.33;;;12.53;;
20776;SDS011;10548;47.504;8.248;2022-07-23T05:38:20;15.07;;;12.33;;
20776;SDS011;10548;47.504;8.248;2022-07-23T05:40:48;15.13;;;11.93;;
20776;SDS011;10548;47.504;8.248;2022-07-23T05:43:16;13.67;;;12.27;;
20776;SDS011;10548;47.504;8.248;2022-07-23T05:45:43;15.80;;;13.93;;
20776;SDS011;10548;47.504;8.248;2022-07-23T05:48:10;13.63;;;12.23;;
20776;SDS011;10548;47.504;8.248;2022-07-23T05:50:48;17.23;;;12.87;;
20776;SDS011;10548;47.504;8.248;2022-07-23T05:53:27;14.57;;;12.60;;
20776;SDS011;10548;47.504;8.248;2022-07-23T05:56:00;14.93;;;11.97;;
20776;SDS011;10548;47.504;8.248;2022-07-23T05:58:29;14.83;;;11.33;;
20776;SDS011;10548;47.504;8.248;2022-07-23T06:00:57;15.60;;;11.67;;
20776;SDS011;10548;47.504;8.248;2022-07-23T06:03:27;15.83;;;12.27;;
20776;SDS011;10548;47.504;8.248;2022-07-23T06:05:54;15.87;;;14.13;;
20776;SDS011;10548;47.504;8.248;2022-07-23T06:08:21;19.33;;;17.30;;
20776;SDS011;10548;47.504;8.248;2022-07-23T06:10:49;18.57;;;16.70;;
20776;SDS011;10548;47.504;8.248;2022-07-23T06:13:17;17.33;;;15.53;;
20776;SDS011;10548;47.504;8.248;2022-07-23T06:15:45;20.10;;;17.63;;
20776;SDS011;10548;47.504;8.248;2022-07-23T06:18:12;20.70;;;15.57;;
20776;SDS011;10548;47.504;8.248;2022-07-23T06:20:39;19.50;;;16.43;;
20776;SDS011;10548;47.504;8.248;2022-07-23T06:23:07;19.90;;;15.80;;
20776;SDS011;10548;47.504;8.248;2022-07-23T06:25:34;18.87;;;16.87;;
20776;SDS011;10548;47.504;8.248;2022-07-23T06:28:01;18.10;;;16.17;;
20776;SDS011;10548;47.504;8.248;2022-07-23T06:30:28;21.27;;;16.93;;
20776;SDS011;10548;47.504;8.248;2022-07-23T06:32:55;21.90;;;15.60;;
20776;SDS011;10548;47.504;8.248;2022-07-23T06:35:22;20.10;;;13.17;;
20776;SDS011;10548;47.504;8.248;2022-07-23T06:37:49;15.90;;;12.50;;
20776;SDS011;10548;47.504;8.248;2022-07-23T06:40:16;14.70;;;12.70;;
20776;SDS011;10548;47.504;8.248;2022-07-23T06:42:43;15.03;;;12.10;;
20776;SDS011;10548;47.504;8.248;2022-07-23T06:45:16;20.27;;;14.50;;
20776;SDS011;10548;47.504;8.248;2022-07-23T06:47:43;16.73;;;14.93;;
20776;SDS011;10548;47.504;8.248;2022-07-23T06:50:10;18.50;;;14.70;;
20776;SDS011;10548;47.504;8.248;2022-07-23T06:52:37;17.23;;;14.03;;
20776;SDS011;10548;47.504;8.248;2022-07-23T06:55:08;20.67;;;13.90;;
20776;SDS011;10548;47.504;8.248;2022-07-23T06:57:37;17.60;;;13.47;;
20776;SDS011;10548;47.504;8.248;2022-07-23T07:00:05;15.20;;;12.10;;
20776;SDS011;10548;47.504;8.248;2022-07-23T07:02:33;15.13;;;13.50;;
20776;SDS011;10548;47.504;8.248;2022-07-23T07:05:00;19.00;;;14.87;;
20776;SDS011;10548;47.504;8.248;2022-07-23T07:07:32;16.00;;;12.97;;
20776;SDS011;10548;47.504;8.248;2022-07-23T07:10:00;15.27;;;13.67;;
20776;SDS011;10548;47.504;8.248;2022-07-23T07:12:27;17.83;;;14.00;;
20776;SDS011;10548;47.504;8.248;2022-07-23T07:14:54;14.27;;;12.30;;
20776;SDS011;10548;47.504;8.248;2022-07-23T07:17:23;16.37;;;12.10;;
20776;SDS011;10548;47.504;8.248;2022-07-23T07:19:50;14.13;;;10.87;;
20776;SDS011;10548;47.504;8.248;2022-07-23T07:22:17;13.27;;;11.87;;
20776;SDS011;10548;47.504;8.248;2022-07-23T07:24:44;14.97;;;11.53;;
20776;SDS011;10548;47.504;8.248;2022-07-23T07:27:11;14.97;;;11.83;;
20776;SDS011;10548;47.504;8.248;2022-07-23T07:29:38;13.13;;;11.37;;
20776;SDS011;10548;47.504;8.248;2022-07-23T07:32:05;15.73;;;12.57;;
20776;SDS011;10548;47.504;8.248;2022-07-23T07:34:32;13.20;;;11.87;;
20776;SDS011;10548;47.504;8.248;2022-07-23T07:36:59;14.00;;;11.23;;
20776;SDS011;10548;47.504;8.248;2022-07-23T07:39:26;14.10;;;11.40;;
20776;SDS011;10548;47.504;8.248;2022-07-23T07:41:53;17.97;;;12.00;;
20776;SDS011;10548;47.504;8.248;2022-07-23T07:44:20;16.30;;;11.37;;
20776;SDS011;10548;47.504;8.248;2022-07-23T07:46:48;15.83;;;11.10;;
20776;SDS011;10548;47.504;8.248;2022-07-23T07:49:15;20.67;;;12.50;;
20776;SDS011;10548;47.504;8.248;2022-07-23T07:51:47;18.00;;;11.97;;
20776;SDS011;10548;47.504;8.248;2022-07-23T07:54:14;17.03;;;13.87;;
20776;SDS011;10548;47.504;8.248;2022-07-23T07:56:41;13.73;;;11.97;;
20776;SDS011;10548;47.504;8.248;2022-07-23T07:59:09;15.90;;;12.57;;
20776;SDS011;10548;47.504;8.248;2022-07-23T08:01:37;14.40;;;12.63;;
20776;SDS011;10548;47.504;8.248;2022-07-23T08:04:04;13.87;;;12.37;;
20776;SDS011;10548;47.504;8.248;2022-07-23T08:06:32;16.50;;;11.33;;
20776;SDS011;10548;47.504;8.248;2022-07-23T08:08:59;15.77;;;12.00;;
20776;SDS011;10548;47.504;8.248;2022-07-23T08:11:26;15.70;;;13.23;;
20776;SDS011;10548;47.504;8.248;2022-07-23T08:13:53;16.57;;;12.50;;
20776;SDS011;10548;47.504;8.248;2022-07-23T08:16:21;15.07;;;12.47;;
20776;SDS011;10548;47.504;8.248;2022-07-23T08:18:48;16.00;;;12.40;;
20776;SDS011;10548;47.504;8.248;2022-07-23T08:21:15;15.07;;;12.50;;
20776;SDS011;10548;47.504;8.248;2022-07-23T08:23:42;15.50;;;11.83;;
20776;SDS011;10548;47.504;8.248;2022-07-23T08:26:09;15.77;;;11.77;;
20776;SDS011;10548;47.504;8.248;2022-07-23T08:28:36;13.80;;;11.03;;
20776;SDS011;10548;47.504;8.248;2022-07-23T08:31:03;14.80;;;11.73;;
20776;SDS011;10548;47.504;8.248;2022-07-23T08:33:32;14.10;;;10.37;;
20776;SDS011;10548;47.504;8.248;2022-07-23T08:36:00;11.30;;;10.10;;
20776;SDS011;10548;47.504;8.248;2022-07-23T08:38:29;14.57;;;11.27;;
20776;SDS011;10548;47.504;8.248;2022-07-23T08:40:57;13.80;;;12.33;;
20776;SDS011;10548;47.504;8.248;2022-07-23T08:43:25;13.70;;;12.30;;
20776;SDS011;10548;47.504;8.248;2022-07-23T08:45:54;13.93;;;12.53;;
20776;SDS011;10548;47.504;8.248;2022-07-23T08:48:24;14.47;;;11.43;;
20776;SDS011;10548;47.504;8.248;2022-07-23T08:50:54;12.63;;;10.83;;
20776;SDS011;10548;47.504;8.248;2022-07-23T08:53:25;12.10;;;10.23;;
20776;SDS011;10548;47.504;8.248;2022-07-23T08:55:53;12.07;;;10.00;;
20776;SDS011;10548;47.504;8.248;2022-07-23T08:58:24;15.73;;;11.07;;
20776;SDS011;10548;47.504;8.248;2022-07-23T09:00:54;13.40;;;11.53;;
20776;SDS011;10548;47.504;8.248;2022-07-23T09:03:33;13.20;;;11.43;;
20776;SDS011;10548;47.504;8.248;2022-07-23T09:06:02;13.70;;;11.27;;
20776;SDS011;10548;47.504;8.248;2022-07-23T09:08:40;13.93;;;12.33;;
20776;SDS011;10548;47.504;8.248;2022-07-23T09:11:10;14.20;;;10.93;;
20776;SDS011;10548;47.504;8.248;2022-07-23T09:13:39;14.17;;;11.07;;
20776;SDS011;10548;47.504;8.248;2022-07-23T09:16:25;15.57;;;12.63;;
20776;SDS011;10548;47.504;8.248;2022-07-23T09:18:58;16.03;;;12.97;;
20776;SDS011;10548;47.504;8.248;2022-07-23T09:21:33;15.30;;;12.10;;
20776;SDS011;10548;47.504;8.248;2022-07-23T09:24:08;13.13;;;11.73;;
20776;SDS011;10548;47.504;8.248;2022-07-23T09:26:37;15.07;;;12.60;;
20776;SDS011;10548;47.504;8.248;2022-07-23T09:31:59;19.53;;;13.97;;
20776;SDS011;10548;47.504;8.248;2022-07-23T09:34:30;15.73;;;13.23;;
20776;SDS011;10548;47.504;8.248;2022-07-23T09:37:11;16.27;;;12.53;;
20776;SDS011;10548;47.504;8.248;2022-07-23T09:39:43;14.07;;;11.07;;
20776;SDS011;10548;47.504;8.248;2022-07-23T09:42:19;13.13;;;10.97;;
20776;SDS011;10548;47.504;8.248;2022-07-23T09:44:52;14.50;;;11.27;;
20776;SDS011;10548;47.504;8.248;2022-07-23T09:47:21;13.63;;;10.60;;
20776;SDS011;10548;47.504;8.248;2022-07-23T09:50:06;16.23;;;12.37;;
20776;SDS011;10548;47.504;8.248;2022-07-23T09:52:36;14.87;;;10.50;;
20776;SDS011;10548;47.504;8.248;2022-07-23T09:55:14;13.13;;;10.20;;
20776;SDS011;10548;47.504;8.248;2022-07-23T09:57:45;14.07;;;9.47;;
20776;SDS011;10548;47.504;8.248;2022-07-23T10:00:22;9.93;;;8.83;;
20776;SDS011;10548;47.504;8.248;2022-07-23T10:02:49;11.30;;;9.47;;
20776;SDS011;10548;47.504;8.248;2022-07-23T10:05:48;13.00;;;9.57;;
20776;SDS011;10548;47.504;8.248;2022-07-23T10:08:34;11.87;;;10.10;;
20776;SDS011;10548;47.504;8.248;2022-07-23T10:11:34;12.90;;;10.47;;
20776;SDS011;10548;47.504;8.248;2022-07-23T10:14:12;11.03;;;9.87;;
20776;SDS011;10548;47.504;8.248;2022-07-23T10:17:02;14.13;;;10.60;;
20776;SDS011;10548;47.504;8.248;2022-07-23T10:19:31;15.27;;;11.53;;
20776;SDS011;10548;47.504;8.248;2022-07-23T10:22:42;13.40;;;12.00;;
20776;SDS011;10548;47.504;8.248;2022-07-23T10:25:36;12.70;;;10.20;;
20776;SDS011;10548;47.504;8.248;2022-07-23T10:30:59;13.07;;;11.03;;
20776;SDS011;10548;47.504;8.248;2022-07-23T10:33:42;15.00;;;12.07;;
20776;SDS011;10548;47.504;8.248;2022-07-23T10:36:18;17.27;;;10.73;;
20776;SDS011;10548;47.504;8.248;2022-07-23T10:39:32;12.77;;;10.57;;
20776;SDS011;10548;47.504;8.248;2022-07-23T10:41:48;16.17;;;12.10;;
20776;SDS011;10548;47.504;8.248;2022-07-23T10:44:16;16.20;;;11.13;;
20776;SDS011;10548;47.504;8.248;2022-07-23T10:46:57;13.67;;;11.13;;
20776;SDS011;10548;47.504;8.248;2022-07-23T10:49:49;12.97;;;10.77;;
20776;SDS011;10548;47.504;8.248;2022-07-23T10:52:23;13.27;;;11.60;;
20776;SDS011;10548;47.504;8.248;2022-07-23T10:58:17;11.17;;;9.73;;
20776;SDS011;10548;47.504;8.248;2022-07-23T11:00:47;14.23;;;10.70;;
20776;SDS011;10548;47.504;8.248;2022-07-23T11:03:31;13.43;;;10.63;;
20776;SDS011;10548;47.504;8.248;2022-07-23T11:06:03;12.87;;;9.50;;
20776;SDS011;10548;47.504;8.248;2022-07-23T11:08:31;13.07;;;10.73;;
20776;SDS011;10548;47.504;8.248;2022-07-23T11:13:46;11.60;;;10.33;;
20776;SDS011;10548;47.504;8.248;2022-07-23T11:16:19;11.77;;;10.60;;
20776;SDS011;10548;47.504;8.248;2022-07-23T11:18:57;12.13;;;10.10;;
20776;SDS011;10548;47.504;8.248;2022-07-23T11:26:54;10.43;;;9.40;;
20776;SDS011;10548;47.504;8.248;2022-07-23T11:32:23;12.93;;;9.73;;
20776;SDS011;10548;47.504;8.248;2022-07-23T11:35:00;15.27;;;10.77;;
20776;SDS011;10548;47.504;8.248;2022-07-23T11:37:31;13.93;;;10.03;;
20776;SDS011;10548;47.504;8.248;2022-07-23T11:40:07;9.70;;;7.93;;
20776;SDS011;10548;47.504;8.248;2022-07-23T11:42:37;12.37;;;9.80;;
20776;SDS011;10548;47.504;8.248;2022-07-23T11:45:06;9.10;;;8.20;;
20776;SDS011;10548;47.504;8.248;2022-07-23T11:47:34;9.97;;;8.83;;
20776;SDS011;10548;47.504;8.248;2022-07-23T11:50:02;11.13;;;9.93;;
20776;SDS011;10548;47.504;8.248;2022-07-23T11:52:31;12.13;;;9.23;;
20776;SDS011;10548;47.504;8.248;2022-07-23T11:55:02;12.70;;;10.10;;
20776;SDS011;10548;47.504;8.248;2022-07-23T11:57:32;13.57;;;9.80;;
20776;SDS011;10548;47.504;8.248;2022-07-23T12:00:05;10.33;;;9.23;;
20776;SDS011;10548;47.504;8.248;2022-07-23T12:02:45;10.73;;;8.60;;
20776;SDS011;10548;47.504;8.248;2022-07-23T12:05:18;10.17;;;9.07;;
20776;SDS011;10548;47.504;8.248;2022-07-23T12:07:47;10.03;;;8.97;;
20776;SDS011;10548;47.504;8.248;2022-07-23T12:10:20;11.03;;;9.77;;
20776;SDS011;10548;47.504;8.248;2022-07-23T12:13:02;11.90;;;8.27;;
20776;SDS011;10548;47.504;8.248;2022-07-23T12:15:32;11.37;;;9.20;;
20776;SDS011;10548;47.504;8.248;2022-07-23T12:18:04;10.93;;;8.33;;
20776;SDS011;10548;47.504;8.248;2022-07-23T12:20:34;8.83;;;7.93;;
20776;SDS011;10548;47.504;8.248;2022-07-23T12:23:04;10.37;;;8.60;;
20776;SDS011;10548;47.504;8.248;2022-07-23T12:25:34;11.33;;;8.50;;
20776;SDS011;10548;47.504;8.248;2022-07-23T12:28:10;14.43;;;10.50;;
20776;SDS011;10548;47.504;8.248;2022-07-23T12:30:43;10.63;;;9.20;;
20776;SDS011;10548;47.504;8.248;2022-07-23T12:33:27;10.30;;;8.63;;
20776;SDS011;10548;47.504;8.248;2022-07-23T12:35:57;10.17;;;8.87;;
20776;SDS011;10548;47.504;8.248;2022-07-23T12:38:27;10.03;;;8.90;;
20776;SDS011;10548;47.504;8.248;2022-07-23T12:40:58;12.93;;;9.87;;
20776;SDS011;10548;47.504;8.248;2022-07-23T12:43:27;9.47;;;8.47;;
20776;SDS011;10548;47.504;8.248;2022-07-23T12:46:09;12.13;;;10.23;;
20776;SDS011;10548;47.504;8.248;2022-07-23T12:48:39;10.53;;;8.80;;
20776;SDS011;10548;47.504;8.248;2022-07-23T12:51:25;12.60;;;9.20;;
20776;SDS011;10548;47.504;8.248;2022-07-23T12:53:59;11.90;;;8.83;;
20776;SDS011;10548;47.504;8.248;2022-07-23T12:56:39;11.37;;;8.87;;
20776;SDS011;10548;47.504;8.248;2022-07-23T12:59:14;11.03;;;8.80;;
20776;SDS011;10548;47.504;8.248;2022-07-23T13:01:56;11.33;;;8.80;;
20776;SDS011;10548;47.504;8.248;2022-07-23T13:04:28;11.17;;;9.10;;
20776;SDS011;10548;47.504;8.248;2022-07-23T13:06:56;10.23;;;8.23;;
20776;SDS011;10548;47.504;8.248;2022-07-23T13:09:30;9.80;;;8.40;;
20776;SDS011;10548;47.504;8.248;2022-07-23T13:12:07;12.03;;;8.90;;
20776;SDS011;10548;47.504;8.248;2022-07-23T13:14:37;10.00;;;8.77;;
20776;SDS011;10548;47.504;8.248;2022-07-23T13:17:05;11.43;;;8.40;;
20776;SDS011;10548;47.504;8.248;2022-07-23T13:19:33;10.30;;;8.37;;
20776;SDS011;10548;47.504;8.248;2022-07-23T13:22:00;10.37;;;9.13;;
20776;SDS011;10548;47.504;8.248;2022-07-23T13:24:34;11.40;;;9.63;;
20776;SDS011;10548;47.504;8.248;2022-07-23T13:27:05;13.20;;;8.93;;
20776;SDS011;10548;47.504;8.248;2022-07-23T13:29:38;11.67;;;9.87;;
20776;SDS011;10548;47.504;8.248;2022-07-23T13:32:05;9.83;;;8.70;;
20776;SDS011;10548;47.504;8.248;2022-07-23T13:34:36;10.07;;;8.67;;
20776;SDS011;10548;47.504;8.248;2022-07-23T13:37:06;14.17;;;7.70;;
20776;SDS011;10548;47.504;8.248;2022-07-23T13:39:33;12.10;;;7.37;;
20776;SDS011;10548;47.504;8.248;2022-07-23T13:42:04;8.00;;;7.10;;
20776;SDS011;10548;47.504;8.248;2022-07-23T13:44:33;7.93;;;7.07;;
20776;SDS011;10548;47.504;8.248;2022-07-23T13:47:02;12.37;;;7.33;;
20776;SDS011;10548;47.504;8.248;2022-07-23T13:49:49;8.37;;;7.17;;
20776;SDS011;10548;47.504;8.248;2022-07-23T13:52:16;10.93;;;6.80;;
20776;SDS011;10548;47.504;8.248;2022-07-23T13:54:43;8.33;;;7.50;;
20776;SDS011;10548;47.504;8.248;2022-07-23T13:57:10;9.47;;;6.90;;
20776;SDS011;10548;47.504;8.248;2022-07-23T13:59:37;8.00;;;6.30;;
20776;SDS011;10548;47.504;8.248;2022-07-23T14:02:05;8.43;;;6.43;;
20776;SDS011;10548;47.504;8.248;2022-07-23T14:04:48;9.13;;;7.13;;
20776;SDS011;10548;47.504;8.248;2022-07-23T14:07:15;9.23;;;6.97;;
20776;SDS011;10548;47.504;8.248;2022-07-23T14:09:43;7.60;;;5.97;;
20776;SDS011;10548;47.504;8.248;2022-07-23T14:12:10;9.33;;;6.50;;
20776;SDS011;10548;47.504;8.248;2022-07-23T14:14:37;10.33;;;6.43;;
20776;SDS011;10548;47.504;8.248;2022-07-23T14:17:05;9.87;;;6.63;;
20776;SDS011;10548;47.504;8.248;2022-07-23T14:19:36;8.30;;;6.93;;
20776;SDS011;10548;47.504;8.248;2022-07-23T14:22:03;8.13;;;6.30;;
20776;SDS011;10548;47.504;8.248;2022-07-23T14:24:32;9.50;;;6.40;;
20776;SDS011;10548;47.504;8.248;2022-07-23T14:27:01;8.03;;;5.97;;
20776;SDS011;10548;47.504;8.248;2022-07-23T14:29:32;11.40;;;6.17;;
20776;SDS011;10548;47.504;8.248;2022-07-23T14:32:00;7.47;;;6.07;;
20776;SDS011;10548;47.504;8.248;2022-07-23T14:34:28;10.93;;;6.00;;
20776;SDS011;10548;47.504;8.248;2022-07-23T14:36:55;5.93;;;5.32;;
20776;SDS011;10548;47.504;8.248;2022-07-23T14:39:23;7.33;;;6.10;;
20776;SDS011;10548;47.504;8.248;2022-07-23T14:41:51;11.33;;;6.47;;
20776;SDS011;10548;47.504;8.248;2022-07-23T14:44:18;10.30;;;5.90;;
20776;SDS011;10548;47.504;8.248;2022-07-23T14:46:45;7.30;;;5.90;;
20776;SDS011;10548;47.504;8.248;2022-07-23T14:49:13;10.43;;;6.40;;
20776;SDS011;10548;47.504;8.248;2022-07-23T14:51:41;10.67;;;6.07;;
20776;SDS011;10548;47.504;8.248;2022-07-23T14:54:08;6.70;;;5.97;;
20776;SDS011;10548;47.504;8.248;2022-07-23T14:56:35;6.90;;;5.40;;
20776;SDS011;10548;47.504;8.248;2022-07-23T14:59:04;9.00;;;6.00;;
20776;SDS011;10548;47.504;8.248;2022-07-23T15:01:32;6.20;;;5.57;;
20776;SDS011;10548;47.504;8.248;2022-07-23T15:04:00;7.87;;;5.63;;
20776;SDS011;10548;47.504;8.248;2022-07-23T15:06:47;5.67;;;4.90;;
20776;SDS011;10548;47.504;8.248;2022-07-23T15:09:14;8.47;;;5.83;;